GCLA/SPC METAR and TAF weather

Enter ICAO airport designator
Station Type Date Time Source
GCLA METAR 2021/05/17 21:30 UTC NOAA

GCLA 172130Z AUTO 01014KT 9999 FEW021 20/16 Q1021


Station Type Date Time Source
GCLA Decoded METAR 2021/05/17 21:30 UTC NOAA

La Palma / Aeropuerto, Spain (GCLA) 28-37N 017-45W 31M
May 17, 2021 - 05:30 PM EDT / 2021.05.17 2130 UTC
Wind: from the N (010 degrees) at 16 MPH (14 KT):0
Visibility: greater than 7 mile(s):0
Sky conditions: mostly clear
Temperature: 68 F (20 C)
Dew Point: 60 F (16 C)
Relative Humidity: 77%
Pressure (altimeter): 30.15 in. Hg (1021 hPa)
ob: GCLA 172130Z AUTO 01014KT 9999 FEW021 20/16 Q1021
cycle: 21

Station Type Date Time Source
GCLA TAF 2021/05/17 21:39 UTC NOAA

TAF TAF GCLA 172000Z 1721/1821 02012KT 9999 FEW020 TX23/1814Z TN19/1806Z

Example: see airport list